Keyes, Oklahoma
Current Conditions -  °F | °C
As of 7:53 AM on Thursday 29 Jan 2015 (Local Time) from KGUY Reporting Station
Broken Clouds Broken Clouds  
Wind Chill: 34°   Ceiling: 11000
Heat Index: 42°   Visibility: 10mi
Dew Point: 29°   Wind: 16mph
Humidity: 60%   Direction: 360°N
Pressure: 30.43"   Gusts: NA
Location:  36.81°N, 102.26°W
Report Text: KGUY 291353Z AUTO 36014KT 10SM BKN110 06/M02 A3043 RMK AO2 SLP291 T00561017
Loading
Personal Weather Stations






























Interactive Weather Map New forecast layout! Learn more

10-Day Weather Forecast

Advertisements
Track Severe Weather on mobile